Oxford, Maine
Current Conditions -  °F | °C
As of 9:35 AM on Thursday 27 Nov 2014 (Local Time) from KLEW Reporting Station
Clear Clear  
Wind Chill: 21°   Ceiling: Unl
Heat Index: 30°   Visibility: 10mi
Dew Point: 23°   Wind: 12mph
Humidity: 75%   Direction: 310°NW
Pressure: 29.87"   Gusts: 16mph
Location:  44.13°N, 70.49°W
Report Text: KLEW 271435Z AUTO 31010G14KT 10SM CLR M01/M05 A2987 RMK AO1 P0001
Loading
Personal Weather Stations






























Interactive Weather Map New forecast layout! Learn more

10-Day Weather Forecast

Advertisements
Track Severe Weather on mobile